»·PEaware :: WAT390 KSEA-KHLN

WAT390 :: KSEA-KHLN

FLIGHT INFORMATION

Flight Status: Arrived
Operator:
Walker Air Transport
More flights by this operator :: More flights under this callsign
Pilot: Ewen S. (18928)
Aircraft: AIRBUS A319
(A319)
More flights by this aircraft type
Origin: KSEA Seattle-Tacoma Intl
United States
Destination: KHLN Helena Regl
United States
More flights between these airports :: More routes between these airports
Route: SEA7 ZADON ZELAK ZIRAN MLP V2 HLN
File this flight plan on PilotEdge
Remarks:
Altitude:
(Current/Filed)
37,000ft
Speed:
(Current/Filed)
450kts
Departed: 15-Feb-21 12:16 PM
Arrived: 15-Feb-21 01:35 PM
Distance/Time
Traveled:
425nm/1:19
Distance/Time
To Go:
Arrived

Flight Plot

Page will automatically refresh every two minutes.

Flight plan parsing failed; only flown route is shown


Map Options




Map Legend


Flown Route
Filed Route
Departure Airport
Arrival Airport
Navaid (VOR, NDB)
Fix

Horizontal Profiles

Position Reports

Time Latitude Longitude Heading Altitude Ground
Speed
15-Feb-21 11:51 47.446021 -122.303118 275 478ft 0kts
15-Feb-21 11:52 47.446021 -122.303118 275 478ft 0kts
15-Feb-21 11:53 47.446021 -122.303118 275 478ft 0kts
15-Feb-21 11:54 47.446021 -122.303118 275 478ft 0kts
15-Feb-21 11:55 47.446021 -122.303118 275 478ft 0kts
15-Feb-21 11:56 47.446021 -122.303118 275 478ft 0kts
15-Feb-21 11:57 47.446021 -122.303118 275 478ft 0kts
15-Feb-21 11:58 47.446021 -122.303118 275 478ft 0kts
15-Feb-21 11:59 47.446021 -122.303118 275 478ft 0kts
15-Feb-21 12:00 47.446021 -122.303118 275 478ft 0kts
15-Feb-21 12:01 47.446021 -122.303118 275 478ft 0kts
15-Feb-21 12:02 47.446021 -122.303118 275 478ft 0kts
15-Feb-21 12:03 47.446021 -122.303118 275 478ft 0kts
15-Feb-21 12:04 47.446021 -122.303118 275 478ft 0kts
15-Feb-21 12:05 47.446021 -122.303118 275 478ft 0kts
15-Feb-21 12:06 47.446021 -122.303118 275 478ft 0kts
15-Feb-21 12:07 47.445993 -122.302637 286 478ft 2kts
15-Feb-21 12:09 47.445574 -122.302438 31 478ft 1kts
15-Feb-21 12:10 47.445561 -122.302450 30 478ft 0kts
15-Feb-21 12:11 47.446693 -122.302158 324 478ft 9kts
15-Feb-21 12:12 47.447655 -122.304547 270 478ft 0kts
15-Feb-21 12:13 47.448494 -122.306287 2 478ft 16kts
15-Feb-21 12:14 47.454869 -122.306224 359 478ft 25kts
15-Feb-21 12:15 47.461595 -122.306162 0 478ft 23kts
15-Feb-21 12:16 47.460549 -122.307791 179 478ft 69kts
15-Feb-21 12:17 47.422275 -122.306451 176 2070ft 156kts
15-Feb-21 12:18 47.371035 -122.301525 177 4076ft 221kts
15-Feb-21 12:19 47.302517 -122.295353 180 7047ft 258kts
15-Feb-21 12:20 47.228677 -122.289028 181 10221ft 274kts
15-Feb-21 12:21 47.143991 -122.281754 180 12100ft 330kts
15-Feb-21 12:22 47.084370 -122.192956 89 15141ft 356kts
15-Feb-21 12:23 47.148125 -122.090049 22 16839ft 369kts
15-Feb-21 12:24 47.239329 -122.015375 23 19228ft 381kts
15-Feb-21 12:25 47.332780 -121.935744 24 21318ft 393kts
15-Feb-21 12:26 47.428791 -121.853300 24 23180ft 406kts
15-Feb-21 12:27 47.527773 -121.766986 30 24858ft 422kts
15-Feb-21 12:28 47.561877 -121.600837 91 26266ft 459kts
15-Feb-21 12:29 47.557624 -121.411170 89 27801ft 466kts
15-Feb-21 12:29 47.555177 -121.248988 90 28773ft 476kts
15-Feb-21 12:31 47.551212 -121.017234 90 30140ft 487kts
15-Feb-21 12:32 47.547372 -120.816312 89 31676ft 483kts
15-Feb-21 12:33 47.543315 -120.620140 89 32962ft 481kts
15-Feb-21 12:33 47.539628 -120.454580 89 33941ft 481kts
15-Feb-21 12:35 47.539143 -120.223639 87 35200ft 478kts
15-Feb-21 12:36 47.539436 -120.026810 87 36178ft 475kts
15-Feb-21 12:36 47.539363 -119.863164 87 36760ft 475kts
15-Feb-21 12:37 47.538984 -119.664205 87 36771ft 485kts
15-Feb-21 12:39 47.538042 -119.431980 87 36771ft 485kts
15-Feb-21 12:39 47.537092 -119.265322 87 36771ft 485kts
15-Feb-21 12:41 47.535350 -119.032446 87 36772ft 485kts
15-Feb-21 12:41 47.533829 -118.865859 87 36759ft 485kts
15-Feb-21 12:42 47.531671 -118.666370 87 36731ft 484kts
15-Feb-21 12:43 47.529167 -118.467235 87 36725ft 482kts
15-Feb-21 12:44 47.526358 -118.268148 88 36725ft 481kts
15-Feb-21 12:45 47.523165 -118.069987 88 36725ft 481kts
15-Feb-21 12:46 47.519680 -117.872302 88 36718ft 480kts
15-Feb-21 12:47 47.515829 -117.674689 88 36707ft 481kts
15-Feb-21 12:48 47.511645 -117.477003 88 36708ft 481kts
15-Feb-21 12:49 47.507133 -117.279314 89 36707ft 481kts
15-Feb-21 12:50 47.502257 -117.081178 89 36707ft 481kts
15-Feb-21 12:51 47.497051 -116.883370 89 36698ft 481kts
15-Feb-21 12:52 47.491523 -116.685753 89 36690ft 481kts
15-Feb-21 12:53 47.485636 -116.487340 89 36687ft 479kts
15-Feb-21 12:54 47.479442 -116.290118 90 36684ft 479kts
15-Feb-21 12:55 47.472855 -116.091636 90 36678ft 478kts
15-Feb-21 12:56 47.465974 -115.894470 90 36599ft 477kts
15-Feb-21 12:57 47.455756 -115.698245 98 36551ft 479kts
15-Feb-21 12:58 47.411793 -115.512163 116 36545ft 482kts
15-Feb-21 12:59 47.349963 -115.334771 117 36538ft 482kts
15-Feb-21 13:00 47.288817 -115.157835 117 36541ft 483kts
15-Feb-21 13:01 47.228570 -114.984753 117 35739ft 463kts
15-Feb-21 13:02 47.169709 -114.816745 117 33796ft 464kts
15-Feb-21 13:03 47.110818 -114.649880 117 31951ft 455kts
15-Feb-21 13:04 47.052589 -114.485923 117 29982ft 450kts
15-Feb-21 13:05 46.994210 -114.322530 118 27728ft 449kts
15-Feb-21 13:06 46.936403 -114.161627 118 25935ft 436kts
15-Feb-21 13:07 46.895629 -113.995052 100 24163ft 424kts
15-Feb-21 13:08 46.873195 -113.822703 100 22341ft 415kts
15-Feb-21 13:09 46.851093 -113.658627 100 20683ft 403kts
15-Feb-21 13:10 46.828875 -113.495634 99 19006ft 393kts
15-Feb-21 13:11 46.806337 -113.331632 100 17300ft 382kts
15-Feb-21 13:12 46.784596 -113.174742 101 15719ft 369kts
15-Feb-21 13:13 46.762594 -113.018120 101 14630ft 358kts
15-Feb-21 13:14 46.740876 -112.865006 101 13540ft 349kts
15-Feb-21 13:15 46.719608 -112.716728 102 12457ft 342kts
15-Feb-21 13:16 46.699020 -112.574688 102 11397ft 332kts
15-Feb-21 13:17 46.679395 -112.440506 102 10824ft 301kts
15-Feb-21 13:18 46.661899 -112.321786 103 10825ft 267kts
15-Feb-21 13:19 46.644334 -112.203397 103 10827ft 278kts
15-Feb-21 13:20 46.627127 -112.088459 103 10827ft 277kts
15-Feb-21 13:21 46.609972 -111.974718 103 10822ft 265kts
15-Feb-21 13:22 46.591110 -111.872239 107 10219ft 250kts
15-Feb-21 13:23 46.572182 -111.774804 107 9290ft 240kts
15-Feb-21 13:24 46.559733 -111.679453 100 8322ft 234kts
15-Feb-21 13:25 46.587336 -111.595892 59 7398ft 228kts
15-Feb-21 13:26 46.562507 -111.544893 206 7381ft 196kts
15-Feb-21 13:27 46.548997 -111.615803 281 7390ft 195kts
15-Feb-21 13:28 46.561638 -111.693492 280 7389ft 195kts
15-Feb-21 13:29 46.572418 -111.764116 280 6566ft 172kts
15-Feb-21 13:30 46.582740 -111.831597 281 5669ft 170kts
15-Feb-21 13:31 46.592169 -111.893142 280 4809ft 140kts
15-Feb-21 13:32 46.600767 -111.948744 282 4119ft 140kts
15-Feb-21 13:33 46.606640 -111.985957 279 3850ft 47kts
15-Feb-21 13:34 46.608339 -111.991436 330 3850ft 0kts
15-Feb-21 13:35 46.609741 -111.991283 2 3850ft 4kts
15-Feb-21 13:36 46.609953 -111.990631 99 3850ft 0kts
15-Feb-21 13:37 46.609953 -111.990631 99 3850ft 0kts

Navigation Log

Ident Type
Flight plan parsing failed, navigation log unavailable